sensor_id;sensor_type;location;lat;lon;timestamp;temperature;humidity
44767;DHT22;30487;48.716;9.272;2022-12-22T00:01:57;8.90;99.90
44767;DHT22;30487;48.716;9.272;2022-12-22T00:04:42;8.90;99.90
44767;DHT22;30487;48.716;9.272;2022-12-22T00:07:27;8.90;99.90
44767;DHT22;30487;48.716;9.272;2022-12-22T00:10:11;8.90;99.90
44767;DHT22;30487;48.716;9.272;2022-12-22T00:12:55;8.90;99.90
44767;DHT22;30487;48.716;9.272;2022-12-22T00:15:39;8.90;99.90
44767;DHT22;30487;48.716;9.272;2022-12-22T00:18:24;8.90;99.90
44767;DHT22;30487;48.716;9.272;2022-12-22T00:21:13;8.90;99.90
44767;DHT22;30487;48.716;9.272;2022-12-22T00:23:57;8.90;99.90
44767;DHT22;30487;48.716;9.272;2022-12-22T00:26:42;8.90;99.90
44767;DHT22;30487;48.716;9.272;2022-12-22T00:29:40;8.90;99.90
44767;DHT22;30487;48.716;9.272;2022-12-22T00:32:34;8.90;99.90
44767;DHT22;30487;48.716;9.272;2022-12-22T00:35:21;8.90;99.90
44767;DHT22;30487;48.716;9.272;2022-12-22T00:38:15;8.90;99.90
44767;DHT22;30487;48.716;9.272;2022-12-22T00:41:00;8.90;99.90
44767;DHT22;30487;48.716;9.272;2022-12-22T00:43:45;8.80;99.90
44767;DHT22;30487;48.716;9.272;2022-12-22T00:46:28;8.90;99.90
44767;DHT22;30487;48.716;9.272;2022-12-22T00:49:14;8.90;99.90
44767;DHT22;30487;48.716;9.272;2022-12-22T00:51:58;8.80;99.90
44767;DHT22;30487;48.716;9.272;2022-12-22T00:54:42;8.90;99.90
44767;DHT22;30487;48.716;9.272;2022-12-22T00:57:27;8.90;99.90
44767;DHT22;30487;48.716;9.272;2022-12-22T01:00:18;8.90;99.90
44767;DHT22;30487;48.716;9.272;2022-12-22T01:03:02;8.90;99.90
44767;DHT22;30487;48.716;9.272;2022-12-22T01:05:47;8.90;99.90
44767;DHT22;30487;48.716;9.272;2022-12-22T01:08:33;9.00;99.90
44767;DHT22;30487;48.716;9.272;2022-12-22T01:11:18;9.00;99.90
44767;DHT22;30487;48.716;9.272;2022-12-22T01:14:04;9.00;99.90
44767;DHT22;30487;48.716;9.272;2022-12-22T01:16:48;9.10;99.90
44767;DHT22;30487;48.716;9.272;2022-12-22T01:19:32;9.10;99.90
44767;DHT22;30487;48.716;9.272;2022-12-22T01:22:19;9.10;99.90
44767;DHT22;30487;48.716;9.272;2022-12-22T01:25:12;9.00;99.90
44767;DHT22;30487;48.716;9.272;2022-12-22T01:27:57;9.10;99.90
44767;DHT22;30487;48.716;9.272;2022-12-22T01:30:41;9.10;99.90
44767;DHT22;30487;48.716;9.272;2022-12-22T01:33:25;9.10;99.90
44767;DHT22;30487;48.716;9.272;2022-12-22T01:36:09;9.10;99.90
44767;DHT22;30487;48.716;9.272;2022-12-22T01:38:53;9.10;99.90
44767;DHT22;30487;48.716;9.272;2022-12-22T01:41:37;9.10;99.90
44767;DHT22;30487;48.716;9.272;2022-12-22T01:44:22;9.20;99.90
44767;DHT22;30487;48.716;9.272;2022-12-22T01:50:22;9.10;99.90
44767;DHT22;30487;48.716;9.272;2022-12-22T01:53:12;9.10;99.90
44767;DHT22;30487;48.716;9.272;2022-12-22T01:55:58;9.10;99.90
44767;DHT22;30487;48.716;9.272;2022-12-22T01:58:47;9.20;99.90
44767;DHT22;30487;48.716;9.272;2022-12-22T02:01:32;9.20;99.90
44767;DHT22;30487;48.716;9.272;2022-12-22T02:04:18;9.20;99.90
44767;DHT22;30487;48.716;9.272;2022-12-22T02:07:16;9.20;99.90
44767;DHT22;30487;48.716;9.272;2022-12-22T02:10:23;9.20;99.90
44767;DHT22;30487;48.716;9.272;2022-12-22T02:16:27;9.20;99.90
44767;DHT22;30487;48.716;9.272;2022-12-22T02:22:59;9.30;99.90
44767;DHT22;30487;48.716;9.272;2022-12-22T02:25:57;9.30;99.90
44767;DHT22;30487;48.716;9.272;2022-12-22T02:28:43;9.30;99.90
44767;DHT22;30487;48.716;9.272;2022-12-22T02:31:36;9.30;99.90
44767;DHT22;30487;48.716;9.272;2022-12-22T02:34:21;9.30;99.90
44767;DHT22;30487;48.716;9.272;2022-12-22T02:37:24;9.30;99.90
44767;DHT22;30487;48.716;9.272;2022-12-22T02:40:20;9.40;99.90
44767;DHT22;30487;48.716;9.272;2022-12-22T02:43:30;9.30;99.90
44767;DHT22;30487;48.716;9.272;2022-12-22T02:46:27;9.30;99.90
44767;DHT22;30487;48.716;9.272;2022-12-22T02:49:26;9.30;99.90
44767;DHT22;30487;48.716;9.272;2022-12-22T02:52:18;9.30;99.90
44767;DHT22;30487;48.716;9.272;2022-12-22T02:55:06;9.40;99.90
44767;DHT22;30487;48.716;9.272;2022-12-22T02:57:51;9.40;99.90
44767;DHT22;30487;48.716;9.272;2022-12-22T03:00:37;9.40;99.90
44767;DHT22;30487;48.716;9.272;2022-12-22T03:03:21;9.40;99.90
44767;DHT22;30487;48.716;9.272;2022-12-22T03:06:05;9.40;99.90
44767;DHT22;30487;48.716;9.272;2022-12-22T03:08:50;9.40;99.90
44767;DHT22;30487;48.716;9.272;2022-12-22T03:11:34;9.40;99.90
44767;DHT22;30487;48.716;9.272;2022-12-22T03:14:18;9.40;99.90
44767;DHT22;30487;48.716;9.272;2022-12-22T03:17:02;9.40;99.90
44767;DHT22;30487;48.716;9.272;2022-12-22T03:19:46;9.40;99.90
44767;DHT22;30487;48.716;9.272;2022-12-22T03:22:30;9.40;99.90
44767;DHT22;30487;48.716;9.272;2022-12-22T03:25:14;9.30;99.90
44767;DHT22;30487;48.716;9.272;2022-12-22T03:28:05;9.40;99.90
44767;DHT22;30487;48.716;9.272;2022-12-22T03:30:31;9.40;99.90
44767;DHT22;30487;48.716;9.272;2022-12-22T03:32:57;9.40;99.90
44767;DHT22;30487;48.716;9.272;2022-12-22T03:35:22;9.40;99.90
44767;DHT22;30487;48.716;9.272;2022-12-22T03:37:48;9.30;99.90
44767;DHT22;30487;48.716;9.272;2022-12-22T03:40:14;9.40;99.90
44767;DHT22;30487;48.716;9.272;2022-12-22T03:42:39;9.40;99.90
44767;DHT22;30487;48.716;9.272;2022-12-22T03:45:23;9.40;99.90
44767;DHT22;30487;48.716;9.272;2022-12-22T03:48:07;9.30;99.90
44767;DHT22;30487;48.716;9.272;2022-12-22T03:50:33;9.30;99.90
44767;DHT22;30487;48.716;9.272;2022-12-22T03:52:59;9.30;99.90
44767;DHT22;30487;48.716;9.272;2022-12-22T03:55:24;9.30;99.90
44767;DHT22;30487;48.716;9.272;2022-12-22T03:57:50;9.30;99.90
44767;DHT22;30487;48.716;9.272;2022-12-22T04:00:15;9.30;99.90
44767;DHT22;30487;48.716;9.272;2022-12-22T04:02:41;9.30;99.90
44767;DHT22;30487;48.716;9.272;2022-12-22T04:05:07;9.30;99.90
44767;DHT22;30487;48.716;9.272;2022-12-22T04:07:33;9.30;99.90
44767;DHT22;30487;48.716;9.272;2022-12-22T04:09:58;9.30;99.90
44767;DHT22;30487;48.716;9.272;2022-12-22T04:12:42;9.30;99.90
44767;DHT22;30487;48.716;9.272;2022-12-22T04:15:25;9.30;99.90
44767;DHT22;30487;48.716;9.272;2022-12-22T04:17:51;9.30;99.90
44767;DHT22;30487;48.716;9.272;2022-12-22T04:20:17;9.30;99.90
44767;DHT22;30487;48.716;9.272;2022-12-22T04:22:43;9.30;99.90
44767;DHT22;30487;48.716;9.272;2022-12-22T04:25:09;9.30;99.90
44767;DHT22;30487;48.716;9.272;2022-12-22T04:27:35;9.30;99.90
44767;DHT22;30487;48.716;9.272;2022-12-22T04:30:00;9.30;99.90
44767;DHT22;30487;48.716;9.272;2022-12-22T04:32:26;9.40;99.90
44767;DHT22;30487;48.716;9.272;2022-12-22T04:34:51;9.40;99.90
44767;DHT22;30487;48.716;9.272;2022-12-22T04:37:17;9.40;99.90
44767;DHT22;30487;48.716;9.272;2022-12-22T04:39:42;9.50;99.90
44767;DHT22;30487;48.716;9.272;2022-12-22T04:42:08;9.50;99.90
44767;DHT22;30487;48.716;9.272;2022-12-22T04:44:33;9.50;99.90
44767;DHT22;30487;48.716;9.272;2022-12-22T04:46:59;9.50;99.90
44767;DHT22;30487;48.716;9.272;2022-12-22T04:49:25;9.60;99.90
44767;DHT22;30487;48.716;9.272;2022-12-22T04:51:50;9.60;99.90
44767;DHT22;30487;48.716;9.272;2022-12-22T04:54:16;9.60;99.90
44767;DHT22;30487;48.716;9.272;2022-12-22T04:56:41;9.60;99.90
44767;DHT22;30487;48.716;9.272;2022-12-22T04:59:07;9.60;99.90
44767;DHT22;30487;48.716;9.272;2022-12-22T05:01:32;9.70;99.90
44767;DHT22;30487;48.716;9.272;2022-12-22T05:03:58;9.70;99.90
44767;DHT22;30487;48.716;9.272;2022-12-22T05:06:23;9.70;99.90
44767;DHT22;30487;48.716;9.272;2022-12-22T05:08:49;9.70;99.90
44767;DHT22;30487;48.716;9.272;2022-12-22T05:11:15;9.70;99.90
44767;DHT22;30487;48.716;9.272;2022-12-22T05:13:40;9.70;99.90
44767;DHT22;30487;48.716;9.272;2022-12-22T05:16:08;9.80;99.90
44767;DHT22;30487;48.716;9.272;2022-12-22T05:18:35;9.80;99.90
44767;DHT22;30487;48.716;9.272;2022-12-22T05:21:14;9.80;99.90
44767;DHT22;30487;48.716;9.272;2022-12-22T05:23:40;9.80;99.90
44767;DHT22;30487;48.716;9.272;2022-12-22T05:26:06;9.80;99.90
44767;DHT22;30487;48.716;9.272;2022-12-22T05:28:32;9.80;99.90
44767;DHT22;30487;48.716;9.272;2022-12-22T05:31:06;9.80;99.90
44767;DHT22;30487;48.716;9.272;2022-12-22T05:33:32;9.90;99.90
44767;DHT22;30487;48.716;9.272;2022-12-22T05:35:58;9.80;99.90
44767;DHT22;30487;48.716;9.272;2022-12-22T05:38:23;9.90;99.90
44767;DHT22;30487;48.716;9.272;2022-12-22T05:40:49;9.80;99.90
44767;DHT22;30487;48.716;9.272;2022-12-22T05:43:14;9.90;99.90
44767;DHT22;30487;48.716;9.272;2022-12-22T05:45:42;9.80;99.90
44767;DHT22;30487;48.716;9.272;2022-12-22T05:48:08;9.80;99.90
44767;DHT22;30487;48.716;9.272;2022-12-22T05:50:33;9.80;99.90
44767;DHT22;30487;48.716;9.272;2022-12-22T05:52:59;9.80;99.90
44767;DHT22;30487;48.716;9.272;2022-12-22T05:55:25;9.80;99.90
44767;DHT22;30487;48.716;9.272;2022-12-22T05:57:50;9.80;99.90
44767;DHT22;30487;48.716;9.272;2022-12-22T06:00:16;9.80;99.90
44767;DHT22;30487;48.716;9.272;2022-12-22T06:02:43;9.80;99.90
44767;DHT22;30487;48.716;9.272;2022-12-22T06:05:10;9.80;99.90
44767;DHT22;30487;48.716;9.272;2022-12-22T06:07:36;9.80;99.90
44767;DHT22;30487;48.716;9.272;2022-12-22T06:10:06;9.80;99.90
44767;DHT22;30487;48.716;9.272;2022-12-22T06:12:31;9.80;99.90
44767;DHT22;30487;48.716;9.272;2022-12-22T06:14:57;9.80;99.90
44767;DHT22;30487;48.716;9.272;2022-12-22T06:17:23;9.80;99.90
44767;DHT22;30487;48.716;9.272;2022-12-22T06:19:48;9.80;99.90
44767;DHT22;30487;48.716;9.272;2022-12-22T06:22:14;9.80;99.90
44767;DHT22;30487;48.716;9.272;2022-12-22T06:24:39;9.80;99.90
44767;DHT22;30487;48.716;9.272;2022-12-22T06:27:05;9.80;99.90
44767;DHT22;30487;48.716;9.272;2022-12-22T06:29:31;9.70;99.90
44767;DHT22;30487;48.716;9.272;2022-12-22T06:31:56;9.80;99.90
44767;DHT22;30487;48.716;9.272;2022-12-22T06:34:22;9.80;99.90
44767;DHT22;30487;48.716;9.272;2022-12-22T06:36:47;9.80;99.90
44767;DHT22;30487;48.716;9.272;2022-12-22T06:39:14;9.80;99.90
44767;DHT22;30487;48.716;9.272;2022-12-22T06:41:40;9.70;99.90
44767;DHT22;30487;48.716;9.272;2022-12-22T06:44:25;9.70;99.90
44767;DHT22;30487;48.716;9.272;2022-12-22T06:46:51;9.70;99.90
44767;DHT22;30487;48.716;9.272;2022-12-22T06:49:17;9.70;99.90
44767;DHT22;30487;48.716;9.272;2022-12-22T06:51:42;9.70;99.90
44767;DHT22;30487;48.716;9.272;2022-12-22T06:54:08;9.70;99.90
44767;DHT22;30487;48.716;9.272;2022-12-22T06:56:33;9.70;99.90
44767;DHT22;30487;48.716;9.272;2022-12-22T06:58:59;9.70;99.90
44767;DHT22;30487;48.716;9.272;2022-12-22T07:01:25;9.70;99.90
44767;DHT22;30487;48.716;9.272;2022-12-22T07:03:50;9.60;99.90
44767;DHT22;30487;48.716;9.272;2022-12-22T07:06:16;9.60;99.90
44767;DHT22;30487;48.716;9.272;2022-12-22T07:08:45;9.60;99.90
44767;DHT22;30487;48.716;9.272;2022-12-22T07:11:11;9.60;99.90
44767;DHT22;30487;48.716;9.272;2022-12-22T07:13:36;9.70;99.90
44767;DHT22;30487;48.716;9.272;2022-12-22T07:16:03;9.70;99.90
44767;DHT22;30487;48.716;9.272;2022-12-22T07:18:31;9.70;99.90
44767;DHT22;30487;48.716;9.272;2022-12-22T07:20:58;9.70;99.90
44767;DHT22;30487;48.716;9.272;2022-12-22T07:23:25;9.70;99.90
44767;DHT22;30487;48.716;9.272;2022-12-22T07:25:51;9.70;99.90
44767;DHT22;30487;48.716;9.272;2022-12-22T07:28:16;9.70;99.90
44767;DHT22;30487;48.716;9.272;2022-12-22T07:30:42;9.60;99.90
44767;DHT22;30487;48.716;9.272;2022-12-22T07:33:07;9.70;99.90
44767;DHT22;30487;48.716;9.272;2022-12-22T07:35:33;9.70;99.90
44767;DHT22;30487;48.716;9.272;2022-12-22T07:37:59;9.70;99.90
44767;DHT22;30487;48.716;9.272;2022-12-22T07:40:25;9.70;99.90
44767;DHT22;30487;48.716;9.272;2022-12-22T07:42:55;9.70;99.90
44767;DHT22;30487;48.716;9.272;2022-12-22T07:45:21;9.70;99.90
44767;DHT22;30487;48.716;9.272;2022-12-22T07:47:47;9.70;99.90
44767;DHT22;30487;48.716;9.272;2022-12-22T07:50:15;9.80;99.90
44767;DHT22;30487;48.716;9.272;2022-12-22T07:52:53;9.80;99.90
44767;DHT22;30487;48.716;9.272;2022-12-22T07:55:19;9.80;99.90
44767;DHT22;30487;48.716;9.272;2022-12-22T07:57:45;9.80;99.90
44767;DHT22;30487;48.716;9.272;2022-12-22T08:00:12;9.90;99.90
44767;DHT22;30487;48.716;9.272;2022-12-22T08:02:38;9.90;99.90
44767;DHT22;30487;48.716;9.272;2022-12-22T08:05:04;9.80;99.90
44767;DHT22;30487;48.716;9.272;2022-12-22T08:07:30;9.80;99.90
44767;DHT22;30487;48.716;9.272;2022-12-22T08:09:57;9.80;99.90
44767;DHT22;30487;48.716;9.272;2022-12-22T08:12:23;9.80;99.90
44767;DHT22;30487;48.716;9.272;2022-12-22T08:14:48;9.80;99.90
44767;DHT22;30487;48.716;9.272;2022-12-22T08:17:14;9.90;99.90
44767;DHT22;30487;48.716;9.272;2022-12-22T08:19:40;9.90;99.90
44767;DHT22;30487;48.716;9.272;2022-12-22T08:22:05;10.00;99.90
44767;DHT22;30487;48.716;9.272;2022-12-22T08:24:31;10.00;99.90
44767;DHT22;30487;48.716;9.272;2022-12-22T08:27:03;10.00;99.90
44767;DHT22;30487;48.716;9.272;2022-12-22T08:29:33;10.10;99.90
44767;DHT22;30487;48.716;9.272;2022-12-22T08:32:00;10.10;99.90
44767;DHT22;30487;48.716;9.272;2022-12-22T08:34:26;10.10;99.90
44767;DHT22;30487;48.716;9.272;2022-12-22T08:36:55;10.10;99.90
44767;DHT22;30487;48.716;9.272;2022-12-22T08:39:24;10.10;99.90
44767;DHT22;30487;48.716;9.272;2022-12-22T08:41:50;10.10;99.90
44767;DHT22;30487;48.716;9.272;2022-12-22T08:46:45;10.10;99.90
44767;DHT22;30487;48.716;9.272;2022-12-22T08:49:11;10.10;99.90
44767;DHT22;30487;48.716;9.272;2022-12-22T08:51:36;10.10;99.90
44767;DHT22;30487;48.716;9.272;2022-12-22T08:54:02;10.20;99.90
44767;DHT22;30487;48.716;9.272;2022-12-22T08:56:29;10.20;99.90
44767;DHT22;30487;48.716;9.272;2022-12-22T08:58:55;10.30;99.90
44767;DHT22;30487;48.716;9.272;2022-12-22T09:01:22;10.40;99.90
44767;DHT22;30487;48.716;9.272;2022-12-22T09:03:52;10.40;99.90
44767;DHT22;30487;48.716;9.272;2022-12-22T09:06:20;10.40;99.90
44767;DHT22;30487;48.716;9.272;2022-12-22T09:08:46;10.50;99.90
44767;DHT22;30487;48.716;9.272;2022-12-22T09:11:12;10.60;99.90
44767;DHT22;30487;48.716;9.272;2022-12-22T09:13:38;10.70;99.90
44767;DHT22;30487;48.716;9.272;2022-12-22T09:16:05;10.80;99.90
44767;DHT22;30487;48.716;9.272;2022-12-22T09:18:31;11.00;99.90
44767;DHT22;30487;48.716;9.272;2022-12-22T09:20:57;11.10;99.90
44767;DHT22;30487;48.716;9.272;2022-12-22T09:23:23;11.20;99.90
44767;DHT22;30487;48.716;9.272;2022-12-22T09:25:49;11.10;99.90
44767;DHT22;30487;48.716;9.272;2022-12-22T09:28:15;11.00;99.90
44767;DHT22;30487;48.716;9.272;2022-12-22T09:30:40;10.90;99.90
44767;DHT22;30487;48.716;9.272;2022-12-22T09:33:06;10.70;99.90
44767;DHT22;30487;48.716;9.272;2022-12-22T09:35:31;10.60;99.90
44767;DHT22;30487;48.716;9.272;2022-12-22T09:37:57;10.50;99.90
44767;DHT22;30487;48.716;9.272;2022-12-22T09:40:23;10.40;99.90
44767;DHT22;30487;48.716;9.272;2022-12-22T09:42:50;10.40;99.90
44767;DHT22;30487;48.716;9.272;2022-12-22T09:45:16;10.30;99.90
44767;DHT22;30487;48.716;9.272;2022-12-22T09:47:47;10.20;99.90
44767;DHT22;30487;48.716;9.272;2022-12-22T09:50:19;10.20;99.90
44767;DHT22;30487;48.716;9.272;2022-12-22T09:52:58;10.10;99.90
44767;DHT22;30487;48.716;9.272;2022-12-22T09:57:53;10.00;99.90
44767;DHT22;30487;48.716;9.272;2022-12-22T10:00:21;9.90;99.90
44767;DHT22;30487;48.716;9.272;2022-12-22T10:05:39;9.90;99.90
44767;DHT22;30487;48.716;9.272;2022-12-22T10:08:15;9.90;99.90
44767;DHT22;30487;48.716;9.272;2022-12-22T10:10:42;10.00;99.90
44767;DHT22;30487;48.716;9.272;2022-12-22T10:13:17;10.00;99.90
44767;DHT22;30487;48.716;9.272;2022-12-22T10:15:42;10.00;99.90
44767;DHT22;30487;48.716;9.272;2022-12-22T10:18:14;10.00;99.90
44767;DHT22;30487;48.716;9.272;2022-12-22T10:20:42;10.00;99.90
44767;DHT22;30487;48.716;9.272;2022-12-22T10:23:26;9.90;99.90
44767;DHT22;30487;48.716;9.272;2022-12-22T10:28:24;10.00;99.90
44767;DHT22;30487;48.716;9.272;2022-12-22T10:31:16;10.00;99.90
44767;DHT22;30487;48.716;9.272;2022-12-22T10:33:44;10.00;99.90
44767;DHT22;30487;48.716;9.272;2022-12-22T10:36:12;10.00;99.90
44767;DHT22;30487;48.716;9.272;2022-12-22T10:38:51;10.00;99.90
44767;DHT22;30487;48.716;9.272;2022-12-22T10:41:20;10.00;99.90
44767;DHT22;30487;48.716;9.272;2022-12-22T10:44:08;10.00;99.90
44767;DHT22;30487;48.716;9.272;2022-12-22T10:49:27;10.00;99.90
44767;DHT22;30487;48.716;9.272;2022-12-22T10:52:22;10.00;99.90
44767;DHT22;30487;48.716;9.272;2022-12-22T10:54:49;10.10;99.90
44767;DHT22;30487;48.716;9.272;2022-12-22T10:59:56;10.10;99.90
44767;DHT22;30487;48.716;9.272;2022-12-22T11:02:36;10.10;99.90
44767;DHT22;30487;48.716;9.272;2022-12-22T11:05:09;10.00;99.90
44767;DHT22;30487;48.716;9.272;2022-12-22T11:07:40;10.00;99.90
44767;DHT22;30487;48.716;9.272;2022-12-22T11:12:57;10.00;99.90
44767;DHT22;30487;48.716;9.272;2022-12-22T11:21:01;10.10;99.90
44767;DHT22;30487;48.716;9.272;2022-12-22T11:23:39;10.10;99.90
44767;DHT22;30487;48.716;9.272;2022-12-22T11:29:22;10.30;99.90
44767;DHT22;30487;48.716;9.272;2022-12-22T11:38:46;10.60;99.90
44767;DHT22;30487;48.716;9.272;2022-12-22T11:40:48;10.60;99.90
44767;DHT22;30487;48.716;9.272;2022-12-22T11:46:44;10.90;99.90
44767;DHT22;30487;48.716;9.272;2022-12-22T11:57:05;11.20;99.90
44767;DHT22;30487;48.716;9.272;2022-12-22T12:05:30;11.30;99.90
44767;DHT22;30487;48.716;9.272;2022-12-22T12:10:45;11.20;99.90
44767;DHT22;30487;48.716;9.272;2022-12-22T12:13:27;11.20;99.90
44767;DHT22;30487;48.716;9.272;2022-12-22T12:16:16;11.20;99.90
44767;DHT22;30487;48.716;9.272;2022-12-22T12:21:34;11.40;99.90
44767;DHT22;30487;48.716;9.272;2022-12-22T12:24:21;11.70;99.90
44767;DHT22;30487;48.716;9.272;2022-12-22T12:29:22;12.40;99.90
44767;DHT22;30487;48.716;9.272;2022-12-22T12:32:05;13.10;99.90
44767;DHT22;30487;48.716;9.272;2022-12-22T12:34:37;14.00;99.90
44767;DHT22;30487;48.716;9.272;2022-12-22T12:37:21;14.30;99.90
44767;DHT22;30487;48.716;9.272;2022-12-22T12:42:36;13.80;99.90
44767;DHT22;30487;48.716;9.272;2022-12-22T12:45:34;13.40;99.90
44767;DHT22;30487;48.716;9.272;2022-12-22T12:50:57;12.70;99.90
44767;DHT22;30487;48.716;9.272;2022-12-22T12:53:25;13.00;99.90
44767;DHT22;30487;48.716;9.272;2022-12-22T13:01:04;14.50;99.90
44767;DHT22;30487;48.716;9.272;2022-12-22T13:05:58;15.60;99.90
44767;DHT22;30487;48.716;9.272;2022-12-22T13:08:25;15.60;99.90
44767;DHT22;30487;48.716;9.272;2022-12-22T13:20:55;15.30;99.90
44767;DHT22;30487;48.716;9.272;2022-12-22T13:23:22;16.00;99.90
44767;DHT22;30487;48.716;9.272;2022-12-22T13:25:53;16.30;99.90
44767;DHT22;30487;48.716;9.272;2022-12-22T13:28:22;16.50;99.90
44767;DHT22;30487;48.716;9.272;2022-12-22T13:30:51;16.10;99.90
44767;DHT22;30487;48.716;9.272;2022-12-22T13:33:20;15.50;99.90
44767;DHT22;30487;48.716;9.272;2022-12-22T13:35:49;14.90;99.90
44767;DHT22;30487;48.716;9.272;2022-12-22T13:38:34;14.40;99.90
44767;DHT22;30487;48.716;9.272;2022-12-22T13:41:18;14.00;99.90
44767;DHT22;30487;48.716;9.272;2022-12-22T13:43:51;13.60;99.90
44767;DHT22;30487;48.716;9.272;2022-12-22T13:46:17;13.10;99.90
44767;DHT22;30487;48.716;9.272;2022-12-22T13:48:46;12.90;99.90
44767;DHT22;30487;48.716;9.272;2022-12-22T13:51:20;12.70;99.90
44767;DHT22;30487;48.716;9.272;2022-12-22T13:53:50;12.60;99.90
44767;DHT22;30487;48.716;9.272;2022-12-22T13:56:37;12.30;99.90
44767;DHT22;30487;48.716;9.272;2022-12-22T13:59:04;12.30;99.90
44767;DHT22;30487;48.716;9.272;2022-12-22T14:01:51;12.20;99.90
44767;DHT22;30487;48.716;9.272;2022-12-22T14:04:16;12.10;99.90
44767;DHT22;30487;48.716;9.272;2022-12-22T14:06:42;12.00;99.90
44767;DHT22;30487;48.716;9.272;2022-12-22T14:09:25;12.00;99.90
44767;DHT22;30487;48.716;9.272;2022-12-22T14:12:05;12.00;99.90
44767;DHT22;30487;48.716;9.272;2022-12-22T14:14:37;11.90;99.90
44767;DHT22;30487;48.716;9.272;2022-12-22T14:17:04;11.90;99.90
44767;DHT22;30487;48.716;9.272;2022-12-22T14:19:41;12.00;99.90
44767;DHT22;30487;48.716;9.272;2022-12-22T14:22:13;12.30;99.90
44767;DHT22;30487;48.716;9.272;2022-12-22T14:24:52;13.10;99.90
44767;DHT22;30487;48.716;9.272;2022-12-22T14:27:36;13.40;99.90
44767;DHT22;30487;48.716;9.272;2022-12-22T14:30:05;13.60;99.90
44767;DHT22;30487;48.716;9.272;2022-12-22T14:32:43;13.50;99.90
44767;DHT22;30487;48.716;9.272;2022-12-22T14:37:49;12.90;99.90
44767;DHT22;30487;48.716;9.272;2022-12-22T14:40:32;12.50;99.90
44767;DHT22;30487;48.716;9.272;2022-12-22T14:43:00;12.30;99.90
44767;DHT22;30487;48.716;9.272;2022-12-22T14:45:26;12.10;99.90
44767;DHT22;30487;48.716;9.272;2022-12-22T14:47:53;12.10;99.90
44767;DHT22;30487;48.716;9.272;2022-12-22T14:50:21;11.90;99.90
44767;DHT22;30487;48.716;9.272;2022-12-22T14:52:55;11.70;99.90
44767;DHT22;30487;48.716;9.272;2022-12-22T14:55:26;11.60;99.90
44767;DHT22;30487;48.716;9.272;2022-12-22T14:58:14;11.50;99.90
44767;DHT22;30487;48.716;9.272;2022-12-22T15:00:45;11.40;99.90
44767;DHT22;30487;48.716;9.272;2022-12-22T15:05:49;11.30;99.90
44767;DHT22;30487;48.716;9.272;2022-12-22T15:08:37;11.20;99.90
44767;DHT22;30487;48.716;9.272;2022-12-22T15:11:04;11.00;99.90
44767;DHT22;30487;48.716;9.272;2022-12-22T15:13:32;11.00;99.90
44767;DHT22;30487;48.716;9.272;2022-12-22T15:15:58;10.90;99.90
44767;DHT22;30487;48.716;9.272;2022-12-22T15:18:25;10.90;99.90
44767;DHT22;30487;48.716;9.272;2022-12-22T15:20:55;10.80;99.90
44767;DHT22;30487;48.716;9.272;2022-12-22T15:23:21;10.70;99.90
44767;DHT22;30487;48.716;9.272;2022-12-22T15:25:46;10.70;99.90
44767;DHT22;30487;48.716;9.272;2022-12-22T15:28:12;10.60;99.90
44767;DHT22;30487;48.716;9.272;2022-12-22T15:30:38;10.60;99.90
44767;DHT22;30487;48.716;9.272;2022-12-22T15:33:08;10.60;99.90
44767;DHT22;30487;48.716;9.272;2022-12-22T15:35:34;10.50;99.90
44767;DHT22;30487;48.716;9.272;2022-12-22T15:38:00;10.50;99.90
44767;DHT22;30487;48.716;9.272;2022-12-22T15:40:26;10.50;99.90
44767;DHT22;30487;48.716;9.272;2022-12-22T15:42:53;10.40;99.90
44767;DHT22;30487;48.716;9.272;2022-12-22T15:45:20;10.40;99.90
44767;DHT22;30487;48.716;9.272;2022-12-22T15:47:53;10.30;99.90
44767;DHT22;30487;48.716;9.272;2022-12-22T15:50:31;10.30;99.90
44767;DHT22;30487;48.716;9.272;2022-12-22T15:52:59;10.30;99.90
44767;DHT22;30487;48.716;9.272;2022-12-22T15:55:26;10.30;99.90
44767;DHT22;30487;48.716;9.272;2022-12-22T15:57:54;10.20;99.90
44767;DHT22;30487;48.716;9.272;2022-12-22T16:00:21;10.20;99.90
44767;DHT22;30487;48.716;9.272;2022-12-22T16:02:47;10.20;99.90
44767;DHT22;30487;48.716;9.272;2022-12-22T16:05:13;10.10;99.90
44767;DHT22;30487;48.716;9.272;2022-12-22T16:07:39;10.10;99.90
44767;DHT22;30487;48.716;9.272;2022-12-22T16:10:16;10.20;99.90
44767;DHT22;30487;48.716;9.272;2022-12-22T16:12:43;10.20;99.90
44767;DHT22;30487;48.716;9.272;2022-12-22T16:15:14;10.10;99.90
44767;DHT22;30487;48.716;9.272;2022-12-22T16:17:40;10.10;99.90
44767;DHT22;30487;48.716;9.272;2022-12-22T16:20:06;10.20;99.90
44767;DHT22;30487;48.716;9.272;2022-12-22T16:22:33;10.20;99.90
44767;DHT22;30487;48.716;9.272;2022-12-22T16:25:02;10.20;99.90
44767;DHT22;30487;48.716;9.272;2022-12-22T16:27:29;10.20;99.90
44767;DHT22;30487;48.716;9.272;2022-12-22T16:29:56;10.10;99.90
44767;DHT22;30487;48.716;9.272;2022-12-22T16:32:28;10.20;99.90
44767;DHT22;30487;48.716;9.272;2022-12-22T16:35:15;10.20;99.90
44767;DHT22;30487;48.716;9.272;2022-12-22T16:37:42;10.20;99.90
44767;DHT22;30487;48.716;9.272;2022-12-22T16:40:08;10.10;99.90
44767;DHT22;30487;48.716;9.272;2022-12-22T16:42:34;10.10;99.90
44767;DHT22;30487;48.716;9.272;2022-12-22T16:45:02;10.10;99.90
44767;DHT22;30487;48.716;9.272;2022-12-22T16:47:32;10.00;99.90
44767;DHT22;30487;48.716;9.272;2022-12-22T16:49:59;10.10;99.90
44767;DHT22;30487;48.716;9.272;2022-12-22T16:52:37;10.00;99.90
44767;DHT22;30487;48.716;9.272;2022-12-22T16:55:19;10.00;99.90
44767;DHT22;30487;48.716;9.272;2022-12-22T16:57:46;10.00;99.90
44767;DHT22;30487;48.716;9.272;2022-12-22T17:00:23;10.00;99.90
44767;DHT22;30487;48.716;9.272;2022-12-22T17:02:55;10.00;99.90
44767;DHT22;30487;48.716;9.272;2022-12-22T17:05:36;10.00;99.90
44767;DHT22;30487;48.716;9.272;2022-12-22T17:08:04;9.90;99.90
44767;DHT22;30487;48.716;9.272;2022-12-22T17:10:30;10.00;99.90
44767;DHT22;30487;48.716;9.272;2022-12-22T17:12:56;9.90;99.90
44767;DHT22;30487;48.716;9.272;2022-12-22T17:15:23;9.90;99.90
44767;DHT22;30487;48.716;9.272;2022-12-22T17:17:49;9.90;99.90
44767;DHT22;30487;48.716;9.272;2022-12-22T17:20:17;10.00;99.90
44767;DHT22;30487;48.716;9.272;2022-12-22T17:22:54;9.90;99.90
44767;DHT22;30487;48.716;9.272;2022-12-22T17:25:26;9.90;99.90
44767;DHT22;30487;48.716;9.272;2022-12-22T17:27:52;9.90;99.90
44767;DHT22;30487;48.716;9.272;2022-12-22T17:30:21;9.90;99.90
44767;DHT22;30487;48.716;9.272;2022-12-22T17:32:48;9.90;99.90
44767;DHT22;30487;48.716;9.272;2022-12-22T17:35:16;9.90;99.90
44767;DHT22;30487;48.716;9.272;2022-12-22T17:37:43;9.90;99.90
44767;DHT22;30487;48.716;9.272;2022-12-22T17:42:42;9.90;99.90
44767;DHT22;30487;48.716;9.272;2022-12-22T17:45:13;10.00;99.90
44767;DHT22;30487;48.716;9.272;2022-12-22T17:47:38;10.00;99.90
44767;DHT22;30487;48.716;9.272;2022-12-22T17:50:05;10.00;99.90
44767;DHT22;30487;48.716;9.272;2022-12-22T17:52:31;10.10;99.90
44767;DHT22;30487;48.716;9.272;2022-12-22T17:54:57;10.10;99.90